createdAt,value
2023-04-10T00:00:33.097Z,5.70
2023-04-10T00:03:04.290Z,5.70
2023-04-10T00:05:31.657Z,5.70
2023-04-10T00:07:58.692Z,5.70
2023-04-10T00:10:26.721Z,5.70
2023-04-10T00:12:54.264Z,5.70
2023-04-10T00:15:21.454Z,5.70
2023-04-10T00:17:50.775Z,5.60
2023-04-10T00:20:17.929Z,5.60
2023-04-10T00:22:44.981Z,5.60
2023-04-10T00:25:12.024Z,5.60
2023-04-10T00:27:39.003Z,5.60
2023-04-10T00:30:06.823Z,5.60
2023-04-10T00:32:33.848Z,5.60
2023-04-10T00:35:01.649Z,5.60
2023-04-10T00:37:28.821Z,5.50
2023-04-10T00:39:56.406Z,5.50
2023-04-10T00:42:23.490Z,5.50
2023-04-10T00:44:50.583Z,5.50
2023-04-10T00:47:17.825Z,5.50
2023-04-10T00:49:45.589Z,5.50
2023-04-10T00:52:12.951Z,5.50
2023-04-10T00:54:40.392Z,5.50
2023-04-10T00:57:07.735Z,5.50
2023-04-10T00:59:35.957Z,5.50
2023-04-10T01:02:03.474Z,5.50
2023-04-10T01:04:32.145Z,5.50
2023-04-10T01:07:19.078Z,5.50
2023-04-10T01:09:56.661Z,5.50
2023-04-10T01:12:46.882Z,5.50
2023-04-10T01:15:18.798Z,5.50
2023-04-10T01:18:03.701Z,5.40
2023-04-10T01:20:34.944Z,5.50
2023-04-10T01:23:14.209Z,5.40
2023-04-10T01:25:59.421Z,5.40
2023-04-10T01:28:51.710Z,5.40
2023-04-10T01:31:51.098Z,5.40
2023-04-10T01:34:29.856Z,5.40
2023-04-10T01:37:02.364Z,5.40
2023-04-10T01:39:31.450Z,5.40
2023-04-10T01:42:00.108Z,5.40
2023-04-10T01:44:31.911Z,5.50
2023-04-10T01:47:00.209Z,5.50
2023-04-10T01:49:30.632Z,5.50
2023-04-10T01:52:00.479Z,5.50
2023-04-10T01:54:32.890Z,5.50
2023-04-10T01:57:04.892Z,5.50
2023-04-10T01:59:31.945Z,5.50
2023-04-10T02:02:00.999Z,5.50
2023-04-10T02:04:28.399Z,5.50
2023-04-10T02:07:11.636Z,5.50
2023-04-10T02:10:04.761Z,5.50
2023-04-10T02:12:39.069Z,5.50
2023-04-10T02:15:08.671Z,5.50
2023-04-10T02:17:42.970Z,5.50
2023-04-10T02:20:11.307Z,5.50
2023-04-10T02:22:41.342Z,5.40
2023-04-10T02:25:08.866Z,5.40
2023-04-10T02:27:37.293Z,5.50
2023-04-10T02:30:05.144Z,5.50
2023-04-10T02:32:33.530Z,5.50
2023-04-10T02:35:02.222Z,5.50
2023-04-10T02:37:29.713Z,5.50
2023-04-10T02:39:56.843Z,5.50
2023-04-10T02:42:23.847Z,5.50
2023-04-10T02:44:50.848Z,5.50
2023-04-10T02:47:18.902Z,5.50
2023-04-10T02:49:46.002Z,5.50
2023-04-10T02:52:13.146Z,5.50
2023-04-10T02:54:40.764Z,5.50
2023-04-10T02:57:08.013Z,5.50
2023-04-10T02:59:35.031Z,5.50
2023-04-10T03:02:02.164Z,5.50
2023-04-10T03:04:31.736Z,5.50
2023-04-10T03:06:59.513Z,5.50
2023-04-10T03:09:26.719Z,5.50
2023-04-10T03:11:53.672Z,5.50
2023-04-10T03:14:21.016Z,5.50
2023-04-10T03:16:48.105Z,5.50
2023-04-10T03:19:15.120Z,5.40
2023-04-10T03:21:42.403Z,5.40
2023-04-10T03:24:09.393Z,5.40
2023-04-10T03:26:36.429Z,5.40
2023-04-10T03:29:03.859Z,5.40
2023-04-10T03:31:31.127Z,5.50
2023-04-10T03:33:58.434Z,5.40
2023-04-10T03:36:25.662Z,5.40
2023-04-10T03:38:53.007Z,5.40
2023-04-10T03:41:20.079Z,5.40
2023-04-10T03:43:47.097Z,5.40
2023-04-10T03:46:14.082Z,5.40
2023-04-10T03:48:41.535Z,5.40
2023-04-10T03:51:08.584Z,5.40
2023-04-10T03:53:36.406Z,5.30
2023-04-10T03:56:04.182Z,5.30
2023-04-10T03:58:31.172Z,5.30
2023-04-10T04:00:58.345Z,5.30
2023-04-10T04:03:25.697Z,5.20
2023-04-10T04:05:52.826Z,5.20
2023-04-10T04:08:19.773Z,5.20
2023-04-10T04:10:46.851Z,5.10
2023-04-10T04:13:13.825Z,5.10
2023-04-10T04:15:41.192Z,5.10
2023-04-10T04:18:09.175Z,5.10
2023-04-10T04:20:36.396Z,5.00
2023-04-10T04:23:03.334Z,5.00
2023-04-10T04:25:30.465Z,5.00
2023-04-10T04:27:57.878Z,5.00
2023-04-10T04:30:24.943Z,5.00
2023-04-10T04:32:51.919Z,4.90
2023-04-10T04:35:18.985Z,4.90
2023-04-10T04:37:46.234Z,5.00
2023-04-10T04:40:13.248Z,5.00
2023-04-10T04:42:40.268Z,5.00
2023-04-10T04:45:08.164Z,5.10
2023-04-10T04:47:35.318Z,5.10
2023-04-10T04:50:02.707Z,5.20
2023-04-10T04:52:29.688Z,5.20
2023-04-10T04:54:56.836Z,5.30
2023-04-10T04:57:23.822Z,5.30
2023-04-10T04:59:50.828Z,5.30
2023-04-10T05:02:19.012Z,5.40
2023-04-10T05:04:46.194Z,5.50
2023-04-10T05:07:13.123Z,5.50
2023-04-10T05:09:40.398Z,5.50
2023-04-10T05:12:07.425Z,5.50
2023-04-10T05:14:34.459Z,5.50
2023-04-10T05:17:03.379Z,5.50
2023-04-10T05:19:30.673Z,5.50
2023-04-10T05:21:57.677Z,5.50
2023-04-10T05:24:24.715Z,5.50
2023-04-10T05:26:51.846Z,5.50
2023-04-10T05:29:18.840Z,5.60
2023-04-10T05:31:45.808Z,5.60
2023-04-10T05:34:12.760Z,5.60
2023-04-10T05:36:39.762Z,5.70
2023-04-10T05:39:06.835Z,5.80
2023-04-10T05:41:33.813Z,5.90
2023-04-10T05:44:00.935Z,6.00
2023-04-10T05:46:28.047Z,6.00
2023-04-10T05:48:55.299Z,6.10
2023-04-10T05:51:22.553Z,6.20
2023-04-10T05:53:50.842Z,6.20
2023-04-10T05:56:18.005Z,6.20
2023-04-10T05:58:45.026Z,6.30
2023-04-10T06:01:13.611Z,6.40
2023-04-10T06:03:40.833Z,6.40
2023-04-10T06:06:08.300Z,6.50
2023-04-10T06:08:35.447Z,6.60
2023-04-10T06:11:02.462Z,6.60
2023-04-10T06:13:29.661Z,6.60
2023-04-10T06:15:56.787Z,6.60
2023-04-10T06:18:23.775Z,6.70
2023-04-10T06:20:50.746Z,6.80
2023-04-10T06:23:17.796Z,6.80
2023-04-10T06:25:44.903Z,6.90
2023-04-10T06:28:11.993Z,7.00
2023-04-10T06:30:39.076Z,7.10
2023-04-10T06:33:06.371Z,7.10
2023-04-10T06:35:34.102Z,7.20
2023-04-10T06:38:01.318Z,7.30
2023-04-10T06:40:29.617Z,7.30
2023-04-10T06:42:57.066Z,7.40
2023-04-10T06:45:24.070Z,7.50
2023-04-10T06:47:51.626Z,7.60
2023-04-10T06:50:18.975Z,7.70
2023-04-10T06:52:47.898Z,7.80
2023-04-10T06:55:14.974Z,8.00
2023-04-10T06:57:42.154Z,8.10
2023-04-10T07:00:09.723Z,8.20
2023-04-10T07:02:36.778Z,8.40
2023-04-10T07:05:03.981Z,8.60
2023-04-10T07:07:31.681Z,8.80
2023-04-10T07:09:58.752Z,8.90
2023-04-10T07:12:26.813Z,9.00
2023-04-10T07:14:53.815Z,9.00
2023-04-10T07:17:22.342Z,9.00
2023-04-10T07:19:49.376Z,9.10
2023-04-10T07:22:16.631Z,9.10
2023-04-10T07:24:44.377Z,9.10
2023-04-10T07:27:13.004Z,9.00
2023-04-10T07:29:40.029Z,9.00
2023-04-10T07:32:07.472Z,9.00
2023-04-10T07:34:34.600Z,9.10
2023-04-10T07:37:01.716Z,9.10
2023-04-10T07:39:28.723Z,9.20
2023-04-10T07:41:55.930Z,9.20
2023-04-10T07:44:22.941Z,9.30
2023-04-10T07:46:52.086Z,9.40
2023-04-10T07:49:19.071Z,9.40
2023-04-10T07:51:46.132Z,9.50
2023-04-10T07:54:13.171Z,9.50
2023-04-10T07:56:40.143Z,9.70
2023-04-10T07:59:07.161Z,9.80
2023-04-10T08:01:34.293Z,9.90
2023-04-10T08:04:04.757Z,10.00
2023-04-10T08:06:32.910Z,10.10
2023-04-10T08:08:59.974Z,10.00
2023-04-10T08:11:33.213Z,10.00
2023-04-10T08:14:02.327Z,10.00
2023-04-10T08:16:31.144Z,9.90
2023-04-10T08:18:59.723Z,9.90
2023-04-10T08:21:28.482Z,9.90
2023-04-10T08:23:57.341Z,9.90
2023-04-10T08:26:26.518Z,9.90
2023-04-10T08:28:56.466Z,9.90
2023-04-10T08:31:25.628Z,9.90
2023-04-10T08:33:53.076Z,9.90
2023-04-10T08:36:20.727Z,10.10
2023-04-10T08:38:48.284Z,10.20
2023-04-10T08:41:17.082Z,10.30
2023-04-10T08:43:45.758Z,10.40
2023-04-10T08:46:14.465Z,10.50
2023-04-10T08:48:47.823Z,10.50
2023-04-10T08:51:20.614Z,10.50
2023-04-10T08:53:58.429Z,10.50
2023-04-10T08:56:26.269Z,10.50
2023-04-10T08:58:53.758Z,10.60
2023-04-10T09:01:21.678Z,10.70
2023-04-10T09:03:49.218Z,10.90
2023-04-10T09:06:16.336Z,11.10
2023-04-10T09:08:43.314Z,11.30
2023-04-10T09:11:13.481Z,11.40
2023-04-10T09:13:42.435Z,11.60
2023-04-10T09:16:10.752Z,11.80
2023-04-10T09:18:51.543Z,11.90
2023-04-10T09:21:22.105Z,12.00
2023-04-10T09:23:59.739Z,12.00
2023-04-10T09:26:29.478Z,11.90
2023-04-10T09:29:07.368Z,11.80
2023-04-10T09:31:36.412Z,11.80
2023-04-10T09:34:23.506Z,12.00
2023-04-10T09:36:56.209Z,12.30
2023-04-10T09:39:43.397Z,12.40
2023-04-10T09:42:15.086Z,12.50
2023-04-10T09:44:43.074Z,12.60
2023-04-10T09:47:21.841Z,12.50
2023-04-10T09:49:54.699Z,12.40
2023-04-10T09:52:27.341Z,12.50
2023-04-10T09:54:59.621Z,12.60
2023-04-10T09:57:31.842Z,12.80
2023-04-10T10:00:01.263Z,12.70
2023-04-10T10:02:31.364Z,12.70
2023-04-10T10:05:02.438Z,12.90
2023-04-10T10:07:30.993Z,13.10
2023-04-10T10:09:59.076Z,12.90
2023-04-10T10:12:44.585Z,12.90
2023-04-10T10:15:23.303Z,13.00
2023-04-10T10:18:02.616Z,13.20
2023-04-10T10:20:33.608Z,13.30
2023-04-10T10:23:08.349Z,13.40
2023-04-10T10:25:36.838Z,13.60
2023-04-10T10:28:04.909Z,13.60
2023-04-10T10:30:36.101Z,13.50
2023-04-10T10:33:07.742Z,13.80
2023-04-10T10:35:38.228Z,13.70
2023-04-10T10:38:06.495Z,13.50
2023-04-10T10:40:45.576Z,13.30
2023-04-10T10:43:28.076Z,13.10
2023-04-10T10:46:02.653Z,13.00
2023-04-10T10:48:29.820Z,13.00
2023-04-10T10:51:00.749Z,13.10
2023-04-10T10:53:45.177Z,13.20
2023-04-10T10:56:22.994Z,13.40
2023-04-10T10:58:53.155Z,13.70
2023-04-10T11:01:21.945Z,14.00
2023-04-10T11:03:49.998Z,14.10
2023-04-10T11:06:19.851Z,14.20
2023-04-10T11:08:53.720Z,14.30
2023-04-10T11:11:28.043Z,14.40
2023-04-10T11:13:57.817Z,14.70
2023-04-10T11:16:44.086Z,14.90
2023-04-10T11:19:20.001Z,15.30
2023-04-10T11:22:08.644Z,15.30
2023-04-10T11:24:58.390Z,15.00
2023-04-10T11:27:47.805Z,15.00
2023-04-10T11:30:35.323Z,15.10
2023-04-10T11:33:04.556Z,15.10
2023-04-10T11:35:32.913Z,15.30
2023-04-10T11:38:18.125Z,15.30
2023-04-10T11:40:55.669Z,15.50
2023-04-10T11:43:22.778Z,15.50
2023-04-10T11:45:49.925Z,15.60
2023-04-10T11:48:17.539Z,15.80
2023-04-10T11:50:44.759Z,15.70
2023-04-10T11:53:20.274Z,15.80
2023-04-10T11:55:47.703Z,15.80
2023-04-10T11:58:32.191Z,15.70
2023-04-10T12:01:04.181Z,15.80
2023-04-10T12:03:42.329Z,15.80
2023-04-10T12:06:13.626Z,15.90
2023-04-10T12:08:43.247Z,15.60
2023-04-10T12:11:11.179Z,15.30
2023-04-10T12:13:38.992Z,15.20
2023-04-10T12:16:10.781Z,15.10
2023-04-10T12:18:38.394Z,15.40
2023-04-10T12:21:08.189Z,15.70
2023-04-10T12:23:41.127Z,16.10
2023-04-10T12:26:18.860Z,16.40
2023-04-10T12:28:55.970Z,16.80
2023-04-10T12:31:33.987Z,16.80
2023-04-10T12:34:02.321Z,16.90
2023-04-10T12:36:31.016Z,16.80
2023-04-10T12:38:59.426Z,16.80
2023-04-10T12:41:29.760Z,16.70
2023-04-10T12:44:14.164Z,16.80
2023-04-10T12:46:43.238Z,16.90
2023-04-10T12:49:15.625Z,17.00
2023-04-10T12:51:51.351Z,17.20
2023-04-10T12:54:32.077Z,17.30
2023-04-10T12:56:59.550Z,17.10
2023-04-10T12:59:27.078Z,16.80
2023-04-10T13:01:54.847Z,16.70
2023-04-10T13:04:23.081Z,16.80
2023-04-10T13:06:53.030Z,16.80
2023-04-10T13:09:20.465Z,16.80
2023-04-10T13:11:48.565Z,16.70
2023-04-10T13:14:17.935Z,16.90
2023-04-10T13:16:45.066Z,17.10
2023-04-10T13:19:13.051Z,17.30
2023-04-10T13:21:40.114Z,17.40
2023-04-10T13:24:07.180Z,17.10
2023-04-10T13:26:34.216Z,17.10
2023-04-10T13:29:01.254Z,17.00
2023-04-10T13:31:28.244Z,16.90
2023-04-10T13:33:55.366Z,16.60
2023-04-10T13:36:22.528Z,16.50
2023-04-10T13:38:49.541Z,16.40
2023-04-10T13:41:16.619Z,16.40
2023-04-10T13:43:43.630Z,16.40
2023-04-10T13:46:10.650Z,16.40
2023-04-10T13:48:41.473Z,16.40
2023-04-10T13:51:09.045Z,16.30
2023-04-10T13:53:36.192Z,16.30
2023-04-10T13:56:03.220Z,16.20
2023-04-10T13:58:32.383Z,16.20
2023-04-10T14:00:59.781Z,16.30
2023-04-10T14:03:27.104Z,16.60
2023-04-10T14:05:54.637Z,16.70
2023-04-10T14:08:21.647Z,16.60
2023-04-10T14:10:50.996Z,16.60
2023-04-10T14:13:18.763Z,16.50
2023-04-10T14:15:46.303Z,16.40
2023-04-10T14:18:14.971Z,16.00
2023-04-10T14:20:42.520Z,15.70
2023-04-10T14:23:09.948Z,15.50
2023-04-10T14:25:36.979Z,15.30
2023-04-10T14:28:03.997Z,15.10
2023-04-10T14:30:32.814Z,15.00
2023-04-10T14:32:59.968Z,15.00
2023-04-10T14:35:27.140Z,15.10
2023-04-10T14:37:54.422Z,15.10
2023-04-10T14:40:21.488Z,15.10
2023-04-10T14:42:48.462Z,15.00
2023-04-10T14:45:15.426Z,15.10
2023-04-10T14:47:42.644Z,15.30
2023-04-10T14:50:09.966Z,15.40
2023-04-10T14:52:37.179Z,15.40
2023-04-10T14:55:04.640Z,15.50
2023-04-10T14:57:31.674Z,15.50
2023-04-10T15:00:01.452Z,15.60
2023-04-10T15:02:30.093Z,15.80
2023-04-10T15:04:57.432Z,16.00
2023-04-10T15:07:24.707Z,16.10
2023-04-10T15:09:56.222Z,16.20
2023-04-10T15:12:24.889Z,16.30
2023-04-10T15:14:52.426Z,16.50
2023-04-10T15:17:22.624Z,16.50
2023-04-10T15:19:50.062Z,16.50
2023-04-10T15:22:17.134Z,16.50
2023-04-10T15:24:50.645Z,16.60
2023-04-10T15:27:20.639Z,16.50
2023-04-10T15:29:47.761Z,16.50
2023-04-10T15:32:14.779Z,16.60
2023-04-10T15:34:41.837Z,16.70
2023-04-10T15:37:08.908Z,16.70
2023-04-10T15:39:37.377Z,16.70
2023-04-10T15:42:06.126Z,16.70
2023-04-10T15:44:33.300Z,16.60
2023-04-10T15:47:00.407Z,16.60
2023-04-10T15:49:36.925Z,16.40
2023-04-10T15:52:08.639Z,16.50
2023-04-10T15:54:35.892Z,16.40
2023-04-10T15:57:03.854Z,16.40
2023-04-10T15:59:31.072Z,16.30
2023-04-10T16:01:58.184Z,16.30
2023-04-10T16:04:25.390Z,16.40
2023-04-10T16:06:52.507Z,16.40
2023-04-10T16:09:25.293Z,16.30
2023-04-10T16:11:54.364Z,16.30
2023-04-10T16:14:22.612Z,16.40
2023-04-10T16:16:50.229Z,16.30
2023-04-10T16:19:17.306Z,16.30
2023-04-10T16:21:44.457Z,16.20
2023-04-10T16:24:11.519Z,16.10
2023-04-10T16:26:38.534Z,16.10
2023-04-10T16:29:06.615Z,16.10
2023-04-10T16:31:33.796Z,16.00
2023-04-10T16:34:01.520Z,15.90
2023-04-10T16:36:28.571Z,15.80
2023-04-10T16:38:56.001Z,15.70
2023-04-10T16:41:23.202Z,15.60
2023-04-10T16:43:50.355Z,15.50
2023-04-10T16:46:17.484Z,15.50
2023-04-10T16:48:44.705Z,15.50
2023-04-10T16:51:18.852Z,15.40
2023-04-10T16:53:45.943Z,15.30
2023-04-10T16:56:13.105Z,15.20
2023-04-10T16:58:42.120Z,15.10
2023-04-10T17:01:18.204Z,15.10
2023-04-10T17:03:47.833Z,15.00
2023-04-10T17:06:16.464Z,14.90
2023-04-10T17:08:44.201Z,14.80
2023-04-10T17:11:12.881Z,14.70
2023-04-10T17:13:41.407Z,14.60
2023-04-10T17:16:09.932Z,14.50
2023-04-10T17:18:37.087Z,14.30
2023-04-10T17:21:04.446Z,14.20
2023-04-10T17:23:31.471Z,14.10
2023-04-10T17:25:58.470Z,14.00
2023-04-10T17:28:25.490Z,13.90
2023-04-10T17:30:52.541Z,13.80
2023-04-10T17:33:21.860Z,13.60
2023-04-10T17:35:51.451Z,13.50
2023-04-10T17:38:20.589Z,13.40
2023-04-10T17:40:47.679Z,13.30
2023-04-10T17:43:14.786Z,13.20
2023-04-10T17:45:41.828Z,13.10
2023-04-10T17:48:10.514Z,13.00
2023-04-10T17:50:37.707Z,13.00
2023-04-10T17:53:04.739Z,12.90
2023-04-10T17:55:32.681Z,12.70
2023-04-10T17:57:59.750Z,12.70
2023-04-10T18:00:27.103Z,12.50
2023-04-10T18:03:00.131Z,12.40
2023-04-10T18:05:31.270Z,12.30
2023-04-10T18:07:58.671Z,12.20
2023-04-10T18:10:25.864Z,12.10
2023-04-10T18:12:53.550Z,11.90
2023-04-10T18:15:20.530Z,11.90
2023-04-10T18:17:47.636Z,11.70
2023-04-10T18:20:15.105Z,11.70
2023-04-10T18:22:42.239Z,11.60
2023-04-10T18:25:10.969Z,11.50
2023-04-10T18:27:51.568Z,11.40
2023-04-10T18:30:31.920Z,11.30
2023-04-10T18:32:58.956Z,11.20
2023-04-10T18:35:26.197Z,11.10
2023-04-10T18:37:53.422Z,11.10
2023-04-10T18:40:23.026Z,11.00
2023-04-10T18:42:50.354Z,10.90
2023-04-10T18:45:17.479Z,10.80
2023-04-10T18:47:44.741Z,10.70
2023-04-10T18:50:12.095Z,10.70
2023-04-10T18:52:39.315Z,10.60
2023-04-10T18:55:07.056Z,10.50
2023-04-10T18:57:34.568Z,10.40
2023-04-10T19:00:02.712Z,10.40
2023-04-10T19:02:30.131Z,10.30
2023-04-10T19:04:57.350Z,10.20
2023-04-10T19:07:24.397Z,10.10
2023-04-10T19:09:51.389Z,10.10
2023-04-10T19:12:18.424Z,10.00
2023-04-10T19:14:46.265Z,10.00
2023-04-10T19:17:13.332Z,9.90
2023-04-10T19:19:40.800Z,9.80
2023-04-10T19:22:07.890Z,9.80
2023-04-10T19:24:35.598Z,9.70
2023-04-10T19:27:02.798Z,9.70
2023-04-10T19:29:31.371Z,9.60
2023-04-10T19:31:58.672Z,9.60
2023-04-10T19:34:25.990Z,9.50
2023-04-10T19:36:53.641Z,9.40
2023-04-10T19:39:21.004Z,9.30
2023-04-10T19:41:48.234Z,9.30
2023-04-10T19:44:15.368Z,9.20
2023-04-10T19:46:42.706Z,9.20
2023-04-10T19:49:10.202Z,9.20
2023-04-10T19:51:37.237Z,9.10
2023-04-10T19:54:04.391Z,9.10
2023-04-10T19:56:31.938Z,9.00
2023-04-10T19:58:59.364Z,9.00
2023-04-10T20:01:26.716Z,8.90
2023-04-10T20:03:54.147Z,8.90
2023-04-10T20:06:22.054Z,8.80
2023-04-10T20:08:49.273Z,8.80
2023-04-10T20:11:16.574Z,8.70
2023-04-10T20:13:43.686Z,8.70
2023-04-10T20:16:10.860Z,8.60
2023-04-10T20:18:39.184Z,8.50
2023-04-10T20:21:08.036Z,8.50
2023-04-10T20:23:35.095Z,8.40
2023-04-10T20:26:02.133Z,8.30
2023-04-10T20:28:29.170Z,8.30
2023-04-10T20:30:56.193Z,8.30
2023-04-10T20:33:23.500Z,8.20
2023-04-10T20:35:50.637Z,8.10
2023-04-10T20:38:18.538Z,8.00
2023-04-10T20:40:45.774Z,8.00
2023-04-10T20:43:13.813Z,7.90
2023-04-10T20:45:41.817Z,7.90
2023-04-10T20:48:09.537Z,7.80
2023-04-10T20:50:37.309Z,7.70
2023-04-10T20:53:04.291Z,7.70
2023-04-10T20:55:31.328Z,7.60
2023-04-10T20:57:58.818Z,7.60
2023-04-10T21:00:25.952Z,7.60
2023-04-10T21:02:53.214Z,7.50
2023-04-10T21:05:20.409Z,7.50
2023-04-10T21:07:47.518Z,7.50
2023-04-10T21:10:14.586Z,7.40
2023-04-10T21:12:41.636Z,7.40
2023-04-10T21:15:09.273Z,7.40
2023-04-10T21:17:36.324Z,7.30
2023-04-10T21:20:04.370Z,7.30
2023-04-10T21:22:31.400Z,7.20
2023-04-10T21:24:58.518Z,7.20
2023-04-10T21:27:25.583Z,7.20
2023-04-10T21:29:52.654Z,7.10
2023-04-10T21:32:19.688Z,7.20
2023-04-10T21:34:46.817Z,7.10
2023-04-10T21:37:13.784Z,7.10
2023-04-10T21:39:41.575Z,7.00
2023-04-10T21:42:08.573Z,7.00
2023-04-10T21:44:35.760Z,7.00
2023-04-10T21:47:02.933Z,7.00
2023-04-10T21:49:29.955Z,6.90
2023-04-10T21:51:57.688Z,6.80
2023-04-10T21:54:24.796Z,6.80
2023-04-10T21:56:51.817Z,6.80
2023-04-10T21:59:18.826Z,6.70
2023-04-10T22:01:46.062Z,6.70
2023-04-10T22:04:13.466Z,6.70
2023-04-10T22:06:40.632Z,6.70
2023-04-10T22:09:07.675Z,6.60
2023-04-10T22:11:35.610Z,6.60
2023-04-10T22:14:15.366Z,6.50
2023-04-10T22:16:45.211Z,6.50
2023-04-10T22:19:12.222Z,6.40
2023-04-10T22:21:39.249Z,6.30
2023-04-10T22:24:06.521Z,6.30
2023-04-10T22:26:35.042Z,6.20
2023-04-10T22:29:04.057Z,6.20
2023-04-10T22:31:31.267Z,6.20
2023-04-10T22:33:58.336Z,6.20
2023-04-10T22:36:31.861Z,6.10
2023-04-10T22:38:58.814Z,6.10
2023-04-10T22:41:26.107Z,6.00
2023-04-10T22:43:53.136Z,6.00
2023-04-10T22:46:20.162Z,6.00
2023-04-10T22:48:47.382Z,5.90
2023-04-10T22:51:15.005Z,5.90
2023-04-10T22:53:42.124Z,5.80
2023-04-10T22:56:10.409Z,5.80
2023-04-10T22:58:39.561Z,5.80
2023-04-10T23:01:08.451Z,5.80
2023-04-10T23:03:35.961Z,5.80
2023-04-10T23:06:03.057Z,5.80
2023-04-10T23:08:30.040Z,5.70
2023-04-10T23:10:57.195Z,5.70
2023-04-10T23:13:24.340Z,5.60
2023-04-10T23:15:55.180Z,5.60
2023-04-10T23:18:22.538Z,5.50
2023-04-10T23:20:51.164Z,5.50
2023-04-10T23:23:18.627Z,5.50
2023-04-10T23:25:45.709Z,5.50
2023-04-10T23:28:12.719Z,5.50
2023-04-10T23:30:40.039Z,5.50
2023-04-10T23:33:07.225Z,5.50
2023-04-10T23:38:14.111Z,5.40
2023-04-10T23:40:41.097Z,5.40
2023-04-10T23:43:08.132Z,5.30
2023-04-10T23:45:35.092Z,5.30
2023-04-10T23:48:02.246Z,5.30
2023-04-10T23:50:29.304Z,5.30
2023-04-10T23:52:56.473Z,5.30
2023-04-10T23:55:23.689Z,5.30
2023-04-10T23:57:50.782Z,5.30
